Time;durP1;ratioP1;P1;durP2;ratioP2;P2;SDS_P1;SDS_P2;PMS_P1;PMS_P2;Temp;Humidity;BMP_temperature;BMP_pressure;BME280_temperature;BME280_humidity;BME280_pressure;Samples;Min_cycle;Max_cycle;Signal;HPM_P1;HPM_P2
2023/08/18 00:01:59;;;;;;;8.45;7.07;;;22.50;99.90;;;23.94;62.88;97633.91;5034044;28;20038;-54
2023/08/18 00:04:27;;;;;;;8.73;7.68;;;22.50;99.90;;;23.90;62.81;97637.34;5034518;28;20044;-55
2023/08/18 00:06:54;;;;;;;9.10;8.20;;;22.50;99.90;;;23.89;63.19;97638.44;5034614;28;20045;-54
2023/08/18 00:09:22;;;;;;;9.65;7.10;;;22.50;99.90;;;23.87;62.86;97643.31;5034092;28;20501;-56
2023/08/18 00:11:51;;;;;;;7.50;6.72;;;22.50;99.90;;;23.88;63.02;97643.03;5032695;28;20045;-54
2023/08/18 00:14:19;;;;;;;9.02;7.43;;;22.40;99.90;;;23.88;62.67;97647.66;5034008;28;20046;-52
2023/08/18 00:16:47;;;;;;;8.65;7.50;;;22.40;99.90;;;23.86;62.29;97636.22;5034141;28;20052;-56
2023/08/18 00:19:14;;;;;;;9.00;7.80;;;22.30;99.90;;;23.85;62.57;97637.28;5033951;28;20038;-55
2023/08/18 00:21:42;;;;;;;7.85;7.05;;;22.30;99.90;;;23.81;62.51;97636.13;5032715;28;20052;-55
2023/08/18 00:24:10;;;;;;;10.40;7.53;;;22.20;99.90;;;23.78;62.78;97640.16;5032911;28;20045;-54
2023/08/18 00:26:37;;;;;;;9.00;8.13;;;22.10;99.90;;;23.73;62.56;97640.88;5034030;28;20512;-54
2023/08/18 00:29:05;;;;;;;10.57;7.75;;;22.10;99.90;;;23.69;62.62;97631.56;5032783;28;20056;-55
2023/08/18 00:31:33;;;;;;;9.40;8.30;;;22.00;99.90;;;23.65;62.74;97626.84;5031154;28;20057;-53
2023/08/18 00:34:00;;;;;;;12.88;8.50;;;22.00;99.90;;;23.61;62.81;97631.13;5033965;28;20044;-54
2023/08/18 00:36:30;;;;;;;7.40;6.22;;;21.90;99.90;;;23.57;62.60;97633.50;5033337;28;20061;-52
2023/08/18 00:39:02;;;;;;;8.35;6.25;;;21.90;99.90;;;23.54;62.18;97629.41;5033747;28;20102;-54
2023/08/18 00:41:30;;;;;;;7.15;6.15;;;21.90;99.90;;;23.53;61.99;97630.47;5031534;28;20053;-53
2023/08/18 00:43:58;;;;;;;6.72;5.43;;;21.90;99.90;;;23.49;61.58;97623.06;5015795;28;20049;-54
2023/08/18 00:46:27;;;;;;;6.65;5.03;;;21.90;99.90;;;23.46;61.15;97621.66;5032660;28;20056;-52
2023/08/18 00:49:01;;;;;;;6.22;4.65;;;21.90;99.60;;;23.43;60.65;97618.59;5031953;28;20057;-55
2023/08/18 00:51:32;;;;;;;6.93;5.00;;;22.00;97.40;;;23.34;60.83;97620.88;5033173;28;20052;-55
2023/08/18 00:54:01;;;;;;;6.78;5.70;;;22.00;96.50;;;23.34;60.58;97615.44;5016165;28;20505;-53
2023/08/18 00:56:28;;;;;;;5.28;4.78;;;22.00;96.00;;;23.34;60.48;97615.44;5016461;28;20057;-54
2023/08/18 00:58:56;;;;;;;6.13;4.97;;;21.90;95.70;;;23.35;60.17;97611.69;5033164;28;20045;-54
2023/08/18 01:01:24;;;;;;;6.10;4.85;;;21.90;95.60;;;23.37;60.32;97620.41;5031567;28;20053;-53
2023/08/18 01:03:53;;;;;;;5.32;4.60;;;21.90;95.20;;;23.38;59.92;97613.91;5032079;28;20052;-51
2023/08/18 01:06:21;;;;;;;7.57;5.40;;;21.90;95.20;;;23.35;59.80;97609.78;5031746;28;20493;-53
2023/08/18 01:08:50;;;;;;;6.53;5.38;;;21.90;94.50;;;23.34;59.86;97612.72;5032813;28;20049;-54
2023/08/18 01:11:33;;;;;;;6.80;4.50;;;21.90;94.70;;;23.33;59.60;97606.50;5031718;28;20052;-54
2023/08/18 01:14:45;;;;;;;6.88;5.32;;;21.80;94.00;;;23.30;59.96;97600.72;5017010;28;20042;-50
2023/08/18 01:17:27;;;;;;;6.47;4.97;;;21.80;93.10;;;23.32;59.68;97604.84;5023918;28;20041;-53
2023/08/18 01:19:55;;;;;;;6.05;4.45;;;21.80;93.90;;;23.30;59.49;97604.28;5032435;28;20094;-55
2023/08/18 01:22:24;;;;;;;5.07;4.57;;;21.80;94.00;;;23.27;59.54;97604.75;5030478;28;20049;-54
2023/08/18 01:25:01;;;;;;;6.53;4.95;;;21.70;93.40;;;23.25;59.11;97606.88;5023648;28;20049;-64
2023/08/18 01:27:33;;;;;;;10.80;5.15;;;21.70;94.00;;;23.19;59.35;97605.97;5032089;28;20058;-64
2023/08/18 01:30:01;;;;;;;10.18;5.03;;;21.70;93.60;;;23.17;59.41;97613.53;5032693;28;20057;-64
2023/08/18 01:32:35;;;;;;;8.77;5.28;;;21.70;94.50;;;23.13;59.30;97620.53;5030159;28;20056;-64
2023/08/18 01:35:05;;;;;;;5.88;4.45;;;21.70;93.80;;;23.12;59.50;97621.56;5031552;28;20061;-64
2023/08/18 01:37:34;;;;;;;10.00;5.82;;;21.70;93.80;;;23.09;59.73;97613.94;5031685;28;20096;-64
2023/08/18 01:40:04;;;;;;;7.97;5.40;;;21.60;94.20;;;23.04;59.47;97613.81;5030754;28;20057;-64
2023/08/18 01:42:33;;;;;;;8.00;5.50;;;21.40;95.00;;;22.98;59.50;97604.72;5031259;28;20049;-64
2023/08/18 01:45:02;;;;;;;8.05;5.30;;;21.30;95.60;;;22.93;59.56;97607.31;5032268;28;20046;-64
2023/08/18 01:47:30;;;;;;;6.68;5.00;;;21.20;95.80;;;22.89;59.45;97616.22;5031122;28;20049;-64
2023/08/18 01:49:58;;;;;;;6.28;4.43;;;21.20;95.80;;;22.85;59.22;97610.44;5031964;28;20057;-64
2023/08/18 01:52:26;;;;;;;5.95;4.75;;;21.20;95.60;;;22.82;59.56;97608.22;5029544;28;20425;-64
2023/08/18 01:54:53;;;;;;;6.55;5.40;;;21.20;95.30;;;22.80;59.40;97610.34;5032425;28;20136;-64
2023/08/18 01:57:21;;;;;;;4.80;4.13;;;21.20;95.30;;;22.79;59.57;97612.22;5031073;28;20053;-64
2023/08/18 01:59:48;;;;;;;5.82;4.82;;;21.20;95.60;;;22.79;59.54;97603.25;5031207;28;20049;-64
2023/08/18 02:02:16;;;;;;;9.50;4.63;;;21.20;95.60;;;22.77;59.62;97606.22;5032270;28;20049;-64
2023/08/18 02:04:44;;;;;;;5.35;4.82;;;21.20;95.20;;;22.75;59.52;97588.53;5030978;28;20053;-64
2023/08/18 02:07:11;;;;;;;6.30;4.25;;;21.20;94.60;;;22.77;59.49;97595.34;5030349;28;20042;-64
2023/08/18 02:09:39;;;;;;;5.68;4.68;;;21.30;94.40;;;22.77;59.40;97589.94;5032475;28;20058;-65
2023/08/18 02:12:07;;;;;;;5.85;5.18;;;21.30;94.00;;;22.76;59.29;97584.72;5031690;28;20515;-64
2023/08/18 02:14:36;;;;;;;6.32;4.65;;;21.30;93.80;;;22.73;59.49;97591.47;5030552;28;20477;-64
2023/08/18 02:17:03;;;;;;;6.28;4.78;;;21.30;94.20;;;22.71;59.20;97590.91;5030521;28;20061;-64
2023/08/18 02:19:31;;;;;;;7.03;4.50;;;21.20;93.60;;;22.72;59.40;97589.84;5032223;28;20045;-64
2023/08/18 02:21:59;;;;;;;7.15;4.40;;;21.20;93.80;;;22.72;59.42;97589.00;5030175;28;20062;-64
2023/08/18 02:24:28;;;;;;;5.85;4.65;;;21.20;92.90;;;22.69;59.14;97586.78;5030482;28;20288;-64
2023/08/18 02:26:56;;;;;;;5.90;4.60;;;21.20;93.10;;;22.65;59.16;97591.88;5030383;28;20050;-64
2023/08/18 02:29:24;;;;;;;5.35;4.28;;;21.10;93.70;;;22.62;59.39;97592.31;5031989;28;20052;-65
2023/08/18 02:31:52;;;;;;;6.63;5.20;;;21.20;94.10;;;22.58;59.43;97586.56;5030197;28;20042;-64
2023/08/18 02:34:20;;;;;;;7.65;5.57;;;21.20;94.10;;;22.57;59.47;97593.06;5030391;28;20045;-64
2023/08/18 02:36:47;;;;;;;7.82;4.90;;;21.10;94.10;;;22.53;59.55;97589.19;5031738;28;20045;-64
2023/08/18 02:39:15;;;;;;;5.97;4.63;;;21.00;94.60;;;22.52;59.67;97590.22;5029956;28;20045;-64
2023/08/18 02:41:44;;;;;;;5.63;4.72;;;21.00;95.30;;;22.44;59.50;97590.59;5029919;28;20524;-64
2023/08/18 02:44:14;;;;;;;5.72;4.88;;;21.00;95.10;;;22.41;59.92;97596.50;5031538;28;20033;-64
2023/08/18 02:46:42;;;;;;;8.82;5.03;;;20.80;95.30;;;22.38;59.58;97600.50;5030369;28;20520;-63
2023/08/18 02:49:09;;;;;;;7.90;4.63;;;20.80;95.50;;;22.40;59.71;97597.56;5031154;28;20520;-64
2023/08/18 02:51:37;;;;;;;5.80;5.25;;;20.80;95.30;;;22.38;59.40;97595.09;5014023;28;20057;-64
2023/08/18 02:54:05;;;;;;;7.60;5.13;;;20.90;95.00;;;22.31;59.35;97590.84;5013903;28;20076;-64
2023/08/18 02:56:32;;;;;;;6.78;4.70;;;21.00;94.00;;;22.28;59.68;97585.94;5030018;28;20064;-63
2023/08/18 02:59:00;;;;;;;6.25;4.20;;;20.90;93.00;;;22.26;59.60;97585.34;5029749;28;20060;-63
2023/08/18 03:01:28;;;;;;;6.03;4.30;;;21.00;93.70;;;22.28;59.65;97589.47;5030856;28;20041;-63
2023/08/18 03:03:55;;;;;;;6.22;4.10;;;20.90;93.10;;;22.32;59.14;97585.22;5030098;28;20049;-64
2023/08/18 03:06:23;;;;;;;6.00;4.57;;;20.90;93.10;;;22.32;59.18;97587.91;5029581;28;20049;-63
2023/08/18 03:08:51;;;;;;;7.20;4.53;;;20.90;92.30;;;22.31;59.05;97580.00;5029215;28;20053;-63
2023/08/18 03:11:19;;;;;;;7.35;5.07;;;20.80;91.90;;;22.28;58.86;97572.38;5029238;28;20053;-64
2023/08/18 03:13:46;;;;;;;6.20;5.50;;;20.70;92.70;;;22.27;59.00;97570.72;5031218;28;20033;-63
2023/08/18 03:16:18;;;;;;;8.20;5.55;;;20.80;92.80;;;22.22;58.89;97558.66;5029864;28;20428;-63
2023/08/18 03:18:46;;;;;;;9.48;5.35;;;20.70;92.30;;;22.18;58.83;97567.53;5029467;28;20058;-63
2023/08/18 03:21:14;;;;;;;6.57;4.47;;;20.70;92.90;;;22.15;58.74;97563.38;5029018;28;20049;-63
2023/08/18 03:23:42;;;;;;;7.57;4.45;;;20.60;92.60;;;22.13;58.98;97561.97;5029938;28;20045;-64
2023/08/18 03:26:10;;;;;;;6.93;5.07;;;20.60;93.40;;;22.10;58.71;97573.28;5029523;28;20057;-63
2023/08/18 03:28:37;;;;;;;6.57;5.40;;;20.50;93.20;;;22.10;59.04;97570.56;5029517;28;20052;-64
2023/08/18 03:31:07;;;;;;;10.20;4.95;;;20.50;92.90;;;22.08;58.81;97565.41;5030577;28;20053;-64
2023/08/18 03:33:36;;;;;;;9.90;6.38;;;20.40;92.90;;;22.05;58.82;97557.75;5028854;28;20421;-64
2023/08/18 03:36:07;;;;;;;8.63;4.63;;;20.40;93.20;;;22.00;58.53;97563.88;5029820;28;20251;-66
2023/08/18 03:38:36;;;;;;;9.95;5.00;;;20.40;92.60;;;21.97;58.53;97560.81;5028858;28;20068;-65
2023/08/18 03:41:06;;;;;;;7.97;5.18;;;20.30;93.00;;;21.95;58.63;97557.53;5029184;28;20045;-65
2023/08/18 03:43:34;;;;;;;6.78;4.93;;;20.40;92.90;;;21.93;58.69;97562.34;5030857;28;20033;-64
2023/08/18 03:46:17;;;;;;;7.82;4.70;;;20.20;93.60;;;21.89;58.88;97561.16;5030696;28;20042;-64
2023/08/18 03:48:48;;;;;;;8.82;5.10;;;20.20;94.20;;;21.88;58.88;97570.34;5029405;28;20049;-64
2023/08/18 03:51:18;;;;;;;6.43;4.45;;;20.10;94.30;;;21.88;59.16;97567.66;5028880;28;20067;-65
2023/08/18 03:53:46;;;;;;;5.10;4.22;;;20.20;94.50;;;21.86;59.08;97570.59;5029304;28;20056;-64
2023/08/18 03:56:14;;;;;;;6.03;4.63;;;20.20;94.10;;;21.87;59.10;97571.41;5029085;28;20065;-64
2023/08/18 03:58:42;;;;;;;8.98;4.88;;;20.30;93.80;;;21.87;59.15;97572.25;5030404;28;20065;-65
2023/08/18 04:01:10;;;;;;;6.60;4.63;;;20.20;94.10;;;21.85;59.27;97566.25;5028590;28;20045;-65
2023/08/18 04:03:41;;;;;;;7.65;5.00;;;20.30;94.20;;;21.86;59.03;97572.47;5029559;28;20401;-65
2023/08/18 04:06:12;;;;;;;6.00;4.40;;;20.30;94.20;;;21.84;59.28;97572.72;5029248;28;20045;-64
2023/08/18 04:08:43;;;;;;;8.13;5.30;;;20.20;94.40;;;21.81;59.54;97576.72;5012584;28;20045;-64
2023/08/18 04:11:11;;;;;;;5.32;4.72;;;20.20;94.80;;;21.79;59.50;97573.44;5012403;28;20056;-64
2023/08/18 04:13:39;;;;;;;6.60;4.70;;;20.10;94.80;;;21.75;59.38;97577.66;5029410;28;20497;-64
2023/08/18 04:16:07;;;;;;;7.40;4.88;;;20.10;95.10;;;21.70;59.26;97574.00;5031381;28;20049;-64
2023/08/18 04:18:37;;;;;;;7.18;4.45;;;19.90;95.60;;;21.63;59.37;97574.09;5032617;28;20497;-64
2023/08/18 04:21:05;;;;;;;5.60;4.80;;;19.80;96.30;;;21.59;59.82;97572.91;5032207;28;20049;-64
2023/08/18 04:23:33;;;;;;;5.75;4.38;;;19.80;96.60;;;21.52;59.63;97575.75;5032839;28;20088;-64
2023/08/18 04:26:01;;;;;;;6.45;5.38;;;19.70;96.90;;;21.48;59.55;97576.44;5033352;28;20402;-64
2023/08/18 04:28:30;;;;;;;6.03;5.43;;;19.70;97.40;;;21.44;59.70;97578.78;5032691;28;20289;-64
2023/08/18 04:30:58;;;;;;;6.72;5.13;;;19.70;97.70;;;21.41;60.03;97576.50;5032543;28;20413;-64
2023/08/18 04:33:33;;;;;;;8.93;5.60;;;19.70;97.70;;;21.38;59.87;97576.97;5025477;28;20037;-64
2023/08/18 04:36:01;;;;;;;7.10;4.78;;;19.60;97.80;;;21.34;60.22;97573.91;5032472;28;20045;-64
2023/08/18 04:38:31;;;;;;;9.48;5.53;;;19.60;98.00;;;21.33;60.39;97585.81;5008902;28;20041;-64
2023/08/18 04:41:02;;;;;;;6.78;4.97;;;19.70;98.20;;;21.34;60.39;97586.63;5016331;28;20049;-64
2023/08/18 04:43:31;;;;;;;8.60;5.47;;;19.70;97.90;;;21.33;60.40;97582.28;5032272;28;20053;-64
2023/08/18 04:45:59;;;;;;;5.60;4.57;;;19.60;97.70;;;21.33;60.24;97588.50;5016008;28;20489;-64
2023/08/18 04:48:27;;;;;;;9.75;5.50;;;19.70;97.70;;;21.31;60.23;97592.50;5032410;28;20037;-64
2023/08/18 04:50:55;;;;;;;6.65;4.75;;;19.60;97.80;;;21.30;60.07;97593.56;5032266;28;20049;-64
2023/08/18 04:53:23;;;;;;;5.50;4.43;;;19.60;97.80;;;21.26;60.49;97590.47;5032538;28;20159;-64
2023/08/18 04:55:51;;;;;;;10.18;4.88;;;19.60;98.20;;;21.26;60.53;97590.47;5031916;28;20054;-64
2023/08/18 04:58:18;;;;;;;8.10;4.90;;;19.60;98.50;;;21.30;60.33;97598.97;5031744;28;20520;-64
2023/08/18 05:00:46;;;;;;;5.95;4.88;;;19.70;98.20;;;21.34;60.43;97600.16;5031380;28;20079;-64
2023/08/18 05:03:16;;;;;;;5.75;4.40;;;19.80;97.60;;;21.36;60.51;97598.03;5032353;28;20046;-64
2023/08/18 05:06:08;;;;;;;7.47;5.38;;;19.80;97.40;;;21.36;60.50;97598.03;5033055;28;20038;-64
2023/08/18 05:08:37;;;;;;;6.28;4.82;;;19.80;97.20;;;21.40;60.27;97604.63;5025886;28;20041;-64
2023/08/18 05:11:07;;;;;;;5.65;5.00;;;19.80;97.10;;;21.41;60.61;97598.19;5015556;28;20511;-64
2023/08/18 05:13:37;;;;;;;5.45;4.13;;;19.80;97.10;;;21.43;60.51;97604.19;5032958;28;20427;-64
2023/08/18 05:16:05;;;;;;;6.15;4.90;;;19.80;96.70;;;21.42;60.28;97602.53;5031893;28;20517;-62
2023/08/18 05:18:33;;;;;;;7.22;5.07;;;19.80;97.20;;;21.45;60.47;97593.16;5025108;28;20535;-62
2023/08/18 05:21:02;;;;;;;5.07;4.55;;;19.90;97.00;;;21.45;60.34;97590.44;5032634;28;20049;-62
2023/08/18 05:23:30;;;;;;;10.50;4.80;;;19.90;96.80;;;21.44;60.29;97589.59;5031616;28;20420;-62
2023/08/18 05:25:59;;;;;;;7.22;4.47;;;19.90;97.20;;;21.47;60.58;97604.59;5031737;28;20046;-62
2023/08/18 05:28:32;;;;;;;4.78;4.13;;;19.90;97.20;;;21.48;60.64;97606.22;5032780;28;20520;-62
2023/08/18 05:31:01;;;;;;;8.02;5.18;;;19.90;97.20;;;21.49;60.77;97599.75;5031653;28;20046;-62
2023/08/18 05:33:28;;;;;;;8.45;5.68;;;19.90;97.00;;;21.52;60.95;97610.13;5031719;28;20045;-62
2023/08/18 05:36:00;;;;;;;6.93;6.07;;;20.00;97.20;;;21.55;60.35;97607.78;5032937;28;20045;-62
2023/08/18 05:38:28;;;;;;;7.28;4.47;;;20.10;96.80;;;21.58;60.41;97617.34;5032714;28;20409;-62
2023/08/18 05:41:11;;;;;;;6.22;4.38;;;20.10;96.60;;;21.59;60.42;97606.25;5032387;28;20037;-62
2023/08/18 05:43:39;;;;;;;5.68;4.15;;;20.20;96.00;;;21.65;60.74;97609.91;5024341;28;20108;-62
2023/08/18 05:46:08;;;;;;;9.85;5.60;;;20.20;96.30;;;21.68;60.87;97603.22;5031675;28;20048;-62
2023/08/18 05:48:36;;;;;;;7.28;4.63;;;20.20;96.40;;;21.70;60.88;97614.66;5030790;28;20516;-62
2023/08/18 05:51:04;;;;;;;7.13;4.65;;;20.30;96.90;;;21.73;60.75;97606.03;5032419;28;20045;-62
2023/08/18 05:53:32;;;;;;;9.90;4.57;;;20.30;97.10;;;21.74;60.96;97610.41;5031305;28;20049;-62
2023/08/18 05:56:00;;;;;;;5.88;4.80;;;20.40;97.00;;;21.77;60.67;97613.47;5032725;28;20037;-62
2023/08/18 05:58:28;;;;;;;8.20;4.50;;;20.40;96.50;;;21.80;60.92;97610.28;5032297;28;20516;-62
2023/08/18 06:00:55;;;;;;;7.55;5.18;;;20.40;96.40;;;21.86;60.87;97615.84;5032224;28;20034;-62
2023/08/18 06:03:23;;;;;;;7.03;5.57;;;20.50;96.50;;;21.90;61.06;97619.72;5032293;28;20053;-62
2023/08/18 06:05:51;;;;;;;8.65;5.10;;;20.60;96.70;;;21.93;61.09;97620.09;5032678;28;20409;-62
2023/08/18 06:08:18;;;;;;;7.35;4.82;;;20.60;97.90;;;21.96;61.47;97616.06;5031966;28;20049;-61
2023/08/18 06:10:46;;;;;;;6.45;5.80;;;20.60;97.30;;;21.99;61.29;97621.84;5031899;28;20052;-62
2023/08/18 06:13:14;;;;;;;8.15;5.57;;;20.60;97.30;;;22.02;61.08;97613.25;5032241;28;20232;-62
2023/08/18 06:15:42;;;;;;;8.95;4.82;;;20.70;97.20;;;22.07;60.98;97623.38;5032281;28;20049;-62
2023/08/18 06:18:10;;;;;;;6.82;5.20;;;20.70;97.10;;;22.12;61.04;97628.09;5031962;28;20489;-62
2023/08/18 06:20:38;;;;;;;7.28;4.65;;;20.70;96.70;;;22.14;60.62;97626.81;5022845;28;20056;-62
2023/08/18 06:23:05;;;;;;;6.53;4.45;;;20.80;96.30;;;22.18;60.61;97624.47;5032050;28;20524;-62
2023/08/18 06:25:33;;;;;;;8.43;4.75;;;20.80;96.00;;;22.22;60.88;97626.44;5030401;28;20516;-62
2023/08/18 06:28:01;;;;;;;9.75;5.70;;;20.90;96.10;;;22.26;60.93;97632.25;5032080;28;20048;-62
2023/08/18 06:30:28;;;;;;;5.88;3.95;;;20.90;96.10;;;22.30;60.71;97636.13;5029972;28;20046;-62
2023/08/18 06:32:56;;;;;;;7.60;4.50;;;21.00;95.60;;;22.34;60.98;97631.06;5031085;28;20045;-62
2023/08/18 06:35:23;;;;;;;6.63;4.57;;;21.10;95.70;;;22.38;60.83;97640.38;5030614;28;20064;-62
2023/08/18 06:37:51;;;;;;;7.38;4.22;;;21.10;94.90;;;22.38;60.31;97641.19;5030106;28;20413;-62
2023/08/18 06:40:19;;;;;;;7.85;4.82;;;21.20;93.80;;;22.41;60.12;97635.31;5031180;28;20053;-62
2023/08/18 06:42:49;;;;;;;8.88;4.72;;;21.20;93.50;;;22.44;59.98;97638.59;5031648;28;20041;-61
2023/08/18 06:45:16;;;;;;;7.35;4.82;;;21.30;92.80;;;22.50;59.98;97638.47;5031311;28;20052;-62
2023/08/18 06:47:44;;;;;;;6.13;4.05;;;21.30;92.60;;;22.56;59.88;97642.13;5031710;28;20037;-62
2023/08/18 06:50:12;;;;;;;6.47;4.45;;;21.40;92.50;;;22.59;59.74;97636.22;5031475;28;20040;-62
2023/08/18 06:52:40;;;;;;;5.80;4.90;;;21.40;92.00;;;22.64;59.55;97633.59;5022311;28;20048;-62
2023/08/18 06:55:13;;;;;;;6.95;4.25;;;21.40;91.20;;;22.69;59.14;97639.16;5031333;28;20045;-62
2023/08/18 06:57:43;;;;;;;5.93;4.43;;;21.50;91.10;;;22.73;59.20;97644.94;5031552;28;20037;-62
2023/08/18 07:00:13;;;;;;;7.13;4.65;;;21.50;90.90;;;22.74;59.31;97641.97;5030466;28;20421;-62
2023/08/18 07:02:41;;;;;;;4.90;4.05;;;21.60;90.70;;;22.79;59.63;97641.25;5030817;28;20042;-62
2023/08/18 07:05:09;;;;;;;7.20;4.35;;;21.60;91.10;;;22.85;59.56;97632.16;5030255;28;20030;-62
2023/08/18 07:07:36;;;;;;;5.15;4.53;;;21.70;91.20;;;22.90;59.35;97636.88;5031368;28;20049;-62
2023/08/18 07:10:05;;;;;;;6.35;4.28;;;21.80;90.70;;;22.95;59.15;97639.66;5030944;28;20052;-62
2023/08/18 07:12:34;;;;;;;6.65;4.13;;;21.80;90.40;;;22.99;59.06;97633.53;5029858;28;20429;-62
2023/08/18 07:15:03;;;;;;;5.35;4.10;;;21.90;90.20;;;23.04;58.94;97640.97;5030169;28;20493;-62
2023/08/18 07:17:30;;;;;;;4.90;4.18;;;21.90;89.70;;;23.09;58.97;97632.09;5030833;28;20416;-62
2023/08/18 07:19:58;;;;;;;6.15;4.00;;;22.00;89.70;;;23.13;59.27;97636.00;5030863;28;20041;-62
2023/08/18 07:22:26;;;;;;;6.97;4.15;;;22.00;90.60;;;23.18;59.48;97639.59;5030837;28;20072;-62
2023/08/18 07:24:54;;;;;;;6.28;4.40;;;22.10;91.00;;;23.23;59.71;97643.50;5031194;28;20048;-62
2023/08/18 07:27:22;;;;;;;5.70;4.03;;;22.10;91.10;;;23.29;59.63;97639.81;5030935;28;20489;-62
2023/08/18 07:29:49;;;;;;;6.32;4.32;;;22.20;91.10;;;23.34;59.55;97648.03;5031066;28;20187;-62
2023/08/18 07:32:17;;;;;;;8.15;4.20;;;22.30;91.20;;;23.40;59.43;97652.53;5030157;28;20045;-62
2023/08/18 07:34:45;;;;;;;6.88;4.20;;;22.30;91.00;;;23.46;59.51;97658.84;5031213;28;20041;-62
2023/08/18 07:37:13;;;;;;;6.78;5.20;;;22.40;91.00;;;23.50;59.40;97649.16;5030892;28;20044;-62
2023/08/18 07:39:41;;;;;;;9.52;4.72;;;22.40;90.50;;;23.54;59.18;97662.00;5029509;28;20041;-62
2023/08/18 07:42:08;;;;;;;8.32;4.47;;;22.40;90.20;;;23.58;59.23;97665.88;5030711;28;20509;-62
2023/08/18 07:44:36;;;;;;;6.20;4.00;;;22.50;90.20;;;23.63;58.83;97659.72;5030820;28;20078;-62
2023/08/18 07:47:04;;;;;;;9.10;5.93;;;22.60;89.60;;;23.65;58.46;97665.75;5030885;28;20037;-63
2023/08/18 07:49:31;;;;;;;4.45;3.65;;;22.60;88.70;;;23.70;58.27;97667.72;5031364;28;20048;-62
2023/08/18 07:51:59;;;;;;;7.38;4.07;;;22.60;88.10;;;23.74;57.83;97668.88;5034611;28;20413;-62
2023/08/18 07:54:26;;;;;;;4.60;3.53;;;22.60;87.30;;;23.78;57.50;97670.06;5034540;28;20520;-62
2023/08/18 07:56:54;;;;;;;7.72;3.53;;;22.70;86.50;;;23.84;57.55;97665.53;5034621;28;20485;-63
2023/08/18 07:59:22;;;;;;;5.43;3.40;;;22.80;86.50;;;23.88;57.35;97666.69;5034373;28;20053;-63
2023/08/18 08:01:50;;;;;;;5.43;3.75;;;22.70;86.00;;;23.92;57.67;97662.41;5034127;28;20041;-63
2023/08/18 08:04:17;;;;;;;5.47;4.43;;;22.80;86.30;;;23.97;57.64;97662.50;5034807;28;20052;-62
2023/08/18 08:06:45;;;;;;;7.07;4.78;;;22.90;86.50;;;24.00;57.11;97656.56;5033996;28;20064;-62
2023/08/18 08:09:14;;;;;;;5.05;4.20;;;22.90;85.70;;;24.05;57.19;97659.34;5034197;28;20405;-62
2023/08/18 08:11:42;;;;;;;5.45;4.47;;;23.00;85.20;;;24.11;57.24;97655.63;5034084;28;20835;-62
2023/08/18 08:14:09;;;;;;;5.22;3.88;;;23.00;85.20;;;24.16;56.85;97661.16;5034209;28;20041;-62
2023/08/18 08:16:37;;;;;;;4.43;3.25;;;23.10;84.70;;;24.21;56.38;97656.88;5034216;28;20045;-63
2023/08/18 08:19:05;;;;;;;7.85;3.65;;;23.10;83.90;;;24.26;56.45;97654.25;5034125;28;20053;-62
2023/08/18 08:21:33;;;;;;;7.28;3.83;;;23.20;83.90;;;24.30;56.58;97663.56;5033928;28;20621;-62
2023/08/18 08:24:05;;;;;;;5.63;3.45;;;23.20;84.00;;;24.36;56.29;97660.63;5032795;28;20041;-62
2023/08/18 08:26:33;;;;;;;7.70;4.45;;;23.30;83.30;;;24.40;55.76;97657.44;5034045;28;20050;-62
2023/08/18 08:29:01;;;;;;;4.68;3.53;;;23.30;82.80;;;24.43;55.62;97660.47;5033948;28;20041;-63
2023/08/18 08:31:29;;;;;;;4.43;3.00;;;23.40;82.30;;;24.49;55.25;97656.75;5033744;28;20046;-63
2023/08/18 08:33:57;;;;;;;6.13;3.20;;;23.40;81.60;;;24.55;55.32;97654.97;5033332;28;20041;-63
2023/08/18 08:36:25;;;;;;;5.30;3.10;;;23.50;81.30;;;24.58;55.51;97651.72;5033793;28;20052;-62
2023/08/18 08:39:02;;;;;;;5.88;4.00;;;23.50;81.50;;;24.64;55.12;97645.28;5033593;28;20041;-63
2023/08/18 08:41:30;;;;;;;4.07;3.40;;;23.50;80.60;;;24.70;54.93;97648.91;5033542;28;20045;-63
2023/08/18 08:43:58;;;;;;;5.53;3.55;;;23.60;80.50;;;24.76;54.91;97642.44;5016209;28;20044;-62
2023/08/18 08:46:26;;;;;;;9.55;3.13;;;23.70;80.50;;;24.80;54.39;97654.47;5033681;28;20045;-63
2023/08/18 08:48:56;;;;;;;3.63;2.92;;;23.80;79.80;;;24.86;54.00;97652.66;5033536;28;20046;-62
2023/08/18 08:51:27;;;;;;;5.68;3.97;;;23.80;79.10;;;24.88;54.24;97659.47;5033931;28;20052;-62
2023/08/18 08:54:01;;;;;;;6.40;4.10;;;23.80;78.30;;;24.93;54.00;97656.81;5026062;28;20041;-63
2023/08/18 08:56:34;;;;;;;4.97;3.58;;;23.90;78.70;;;24.98;54.21;97656.06;5032374;28;20050;-63
2023/08/18 08:59:01;;;;;;;5.05;3.55;;;23.90;78.80;;;25.02;53.45;97656.38;5032159;28;20052;-63
2023/08/18 09:01:29;;;;;;;7.72;3.85;;;24.00;77.80;;;25.06;53.65;97661.03;5032505;28;20505;-63
2023/08/18 09:03:57;;;;;;;4.85;3.22;;;24.00;77.80;;;25.10;53.43;97667.63;5031986;28;20052;-62
2023/08/18 09:06:25;;;;;;;5.10;3.58;;;24.00;77.70;;;25.14;53.30;97662.50;5032108;28;20042;-63
2023/08/18 09:08:53;;;;;;;5.15;3.42;;;24.10;77.50;;;25.18;53.05;97660.91;5032912;28;20042;-63
2023/08/18 09:11:39;;;;;;;3.40;3.08;;;24.10;77.10;;;25.20;53.33;97652.47;5033255;28;20045;-62
2023/08/18 09:14:07;;;;;;;4.47;3.30;;;24.20;75.70;;;25.27;53.48;97644.97;5027215;28;20511;-62
2023/08/18 09:16:34;;;;;;;8.13;3.30;;;24.20;77.00;;;25.33;52.74;97652.13;5033136;28;20048;-62
2023/08/18 09:19:02;;;;;;;6.45;3.20;;;24.30;76.60;;;25.41;52.82;97653.56;5033208;28;20052;-63
2023/08/18 09:21:32;;;;;;;3.15;2.55;;;24.30;75.90;;;25.46;51.90;97659.88;5031751;28;20046;-62
2023/08/18 09:24:00;;;;;;;7.65;3.78;;;24.40;74.80;;;25.53;52.22;97659.66;5033137;28;20393;-62
2023/08/18 09:26:31;;;;;;;3.55;3.25;;;24.50;74.40;;;25.59;51.32;97660.53;5031965;28;20046;-62
2023/08/18 09:28:59;;;;;;;3.88;2.78;;;24.60;73.00;;;25.62;51.18;97652.69;5032734;28;20045;-62
2023/08/18 09:31:28;;;;;;;4.85;2.95;;;24.60;72.20;;;25.68;50.88;97659.00;5032859;28;20045;-62
2023/08/18 09:33:55;;;;;;;6.93;3.75;;;24.60;72.30;;;25.76;51.22;97658.53;5025035;28;20045;-62
2023/08/18 09:36:25;;;;;;;3.80;2.72;;;24.70;72.70;;;25.80;50.48;97658.84;5032917;28;20417;-62
2023/08/18 09:38:53;;;;;;;4.22;3.10;;;24.80;71.80;;;25.85;49.96;97656.97;5032707;28;20046;-62
2023/08/18 09:41:21;;;;;;;4.43;2.97;;;24.80;69.90;;;25.91;49.88;97649.69;5031071;28;20065;-62
2023/08/18 09:43:48;;;;;;;5.40;2.83;;;24.80;70.30;;;25.97;49.58;97648.66;5032652;28;20049;-62
2023/08/18 09:46:17;;;;;;;2.70;2.28;;;24.90;70.00;;;26.02;49.86;97645.16;5032339;28;20045;-62
2023/08/18 09:48:47;;;;;;;4.47;3.35;;;25.00;69.70;;;26.07;48.80;97647.91;5031198;28;20042;-62
2023/08/18 09:51:17;;;;;;;3.08;2.78;;;25.10;68.10;;;26.12;48.27;97637.03;5032532;28;20045;-62
2023/08/18 09:53:59;;;;;;;4.30;2.70;;;25.10;67.30;;;26.18;48.90;97638.72;5031555;28;20512;-62
2023/08/18 09:56:35;;;;;;;4.38;2.50;;;25.20;66.50;;;26.21;48.38;97638.22;5031518;28;20037;-62
2023/08/18 09:59:41;;;;;;;3.97;2.50;;;25.20;65.40;;;26.25;48.74;97636.59;5025126;28;20053;-62
2023/08/18 10:02:17;;;;;;;4.00;2.28;;;25.30;63.30;;;26.35;47.18;97633.09;5013088;28;20402;-62
2023/08/18 10:04:47;;;;;;;3.05;2.20;;;25.30;63.90;;;26.41;47.06;97636.69;5031111;28;20045;-63
2023/08/18 10:07:16;;;;;;;4.32;2.58;;;25.30;63.80;;;26.48;46.93;97634.53;5030969;28;20037;-62
2023/08/18 10:09:46;;;;;;;3.42;2.63;;;25.40;64.00;;;26.55;46.30;97637.84;5030601;28;20494;-63
2023/08/18 10:12:14;;;;;;;4.30;2.92;;;25.50;63.10;;;26.62;46.26;97635.75;5030679;28;20417;-62
2023/08/18 10:14:44;;;;;;;3.72;2.60;;;25.60;62.40;;;26.68;45.72;97631.13;5031383;28;20053;-63
2023/08/18 10:17:12;;;;;;;5.53;2.65;;;25.70;61.90;;;26.75;45.62;97628.97;5026915;28;20509;-63
2023/08/18 10:19:58;;;;;;;3.53;2.45;;;25.80;61.70;;;26.84;44.88;97627.38;5030525;28;20056;-63
2023/08/18 10:22:29;;;;;;;5.70;2.15;;;25.90;57.70;;;26.92;44.18;97631.50;5032023;28;20045;-63
2023/08/18 10:24:57;;;;;;;3.25;2.20;;;25.90;58.80;;;26.99;44.00;97631.25;5032226;28;20037;-63
2023/08/18 10:27:27;;;;;;;3.40;2.58;;;26.00;58.70;;;27.02;43.56;97627.97;5031855;28;20072;-62